sensor_id;sensor_type;location;lat;lon;timestamp;P1;durP1;ratioP1;P2;durP2;ratioP2
20034;SDS011;10178;48.034;9.800;2022-11-20T00:02:21;6.03;;;3.65;;
20034;SDS011;10178;48.034;9.800;2022-11-20T00:04:47;6.32;;;3.10;;
20034;SDS011;10178;48.034;9.800;2022-11-20T00:07:12;8.10;;;3.80;;
20034;SDS011;10178;48.034;9.800;2022-11-20T00:09:38;4.22;;;3.35;;
20034;SDS011;10178;48.034;9.800;2022-11-20T00:12:04;8.43;;;3.63;;
20034;SDS011;10178;48.034;9.800;2022-11-20T00:14:29;3.83;;;3.28;;
20034;SDS011;10178;48.034;9.800;2022-11-20T00:16:55;5.45;;;3.55;;
20034;SDS011;10178;48.034;9.800;2022-11-20T00:19:20;7.38;;;3.22;;
20034;SDS011;10178;48.034;9.800;2022-11-20T00:21:46;4.55;;;3.35;;
20034;SDS011;10178;48.034;9.800;2022-11-20T00:24:12;7.10;;;3.30;;
20034;SDS011;10178;48.034;9.800;2022-11-20T00:26:38;4.85;;;3.08;;
20034;SDS011;10178;48.034;9.800;2022-11-20T00:29:03;4.82;;;3.08;;
20034;SDS011;10178;48.034;9.800;2022-11-20T00:31:30;4.65;;;3.25;;
20034;SDS011;10178;48.034;9.800;2022-11-20T00:33:55;5.45;;;3.25;;
20034;SDS011;10178;48.034;9.800;2022-11-20T00:36:23;4.15;;;2.85;;
20034;SDS011;10178;48.034;9.800;2022-11-20T00:38:51;4.20;;;3.10;;
20034;SDS011;10178;48.034;9.800;2022-11-20T00:41:17;3.85;;;3.00;;
20034;SDS011;10178;48.034;9.800;2022-11-20T00:43:43;4.00;;;3.20;;
20034;SDS011;10178;48.034;9.800;2022-11-20T00:46:10;3.38;;;2.85;;
20034;SDS011;10178;48.034;9.800;2022-11-20T00:48:42;3.67;;;2.85;;
20034;SDS011;10178;48.034;9.800;2022-11-20T00:51:08;3.83;;;3.35;;
20034;SDS011;10178;48.034;9.800;2022-11-20T00:53:34;4.30;;;3.30;;
20034;SDS011;10178;48.034;9.800;2022-11-20T00:56:01;5.43;;;3.22;;
20034;SDS011;10178;48.034;9.800;2022-11-20T00:58:32;3.90;;;2.75;;
20034;SDS011;10178;48.034;9.800;2022-11-20T01:01:06;3.85;;;3.00;;
20034;SDS011;10178;48.034;9.800;2022-11-20T01:03:41;3.40;;;2.72;;
20034;SDS011;10178;48.034;9.800;2022-11-20T01:06:12;2.92;;;2.42;;
20034;SDS011;10178;48.034;9.800;2022-11-20T01:08:37;3.95;;;3.10;;
20034;SDS011;10178;48.034;9.800;2022-11-20T01:11:05;4.50;;;3.00;;
20034;SDS011;10178;48.034;9.800;2022-11-20T01:13:35;6.20;;;2.78;;
20034;SDS011;10178;48.034;9.800;2022-11-20T01:18:35;3.13;;;2.58;;
20034;SDS011;10178;48.034;9.800;2022-11-20T01:21:02;3.08;;;2.78;;
20034;SDS011;10178;48.034;9.800;2022-11-20T01:23:37;3.33;;;2.58;;
20034;SDS011;10178;48.034;9.800;2022-11-20T01:26:06;4.38;;;2.70;;
20034;SDS011;10178;48.034;9.800;2022-11-20T01:28:34;2.85;;;2.47;;
20034;SDS011;10178;48.034;9.800;2022-11-20T01:31:00;3.10;;;2.80;;
20034;SDS011;10178;48.034;9.800;2022-11-20T01:33:25;3.42;;;2.85;;
20034;SDS011;10178;48.034;9.800;2022-11-20T01:35:52;3.83;;;2.70;;
20034;SDS011;10178;48.034;9.800;2022-11-20T01:38:18;3.42;;;2.70;;
20034;SDS011;10178;48.034;9.800;2022-11-20T01:40:54;3.03;;;2.45;;
20034;SDS011;10178;48.034;9.800;2022-11-20T01:43:20;4.78;;;3.20;;
20034;SDS011;10178;48.034;9.800;2022-11-20T01:48:30;3.50;;;2.70;;
20034;SDS011;10178;48.034;9.800;2022-11-20T01:51:03;5.28;;;2.78;;
20034;SDS011;10178;48.034;9.800;2022-11-20T01:53:32;3.60;;;2.50;;
20034;SDS011;10178;48.034;9.800;2022-11-20T01:56:01;3.00;;;2.53;;
20034;SDS011;10178;48.034;9.800;2022-11-20T01:58:32;3.28;;;2.80;;
20034;SDS011;10178;48.034;9.800;2022-11-20T02:01:00;3.33;;;2.88;;
20034;SDS011;10178;48.034;9.800;2022-11-20T02:03:26;3.95;;;2.40;;
20034;SDS011;10178;48.034;9.800;2022-11-20T02:05:57;2.60;;;2.40;;
20034;SDS011;10178;48.034;9.800;2022-11-20T02:08:46;2.50;;;2.30;;
20034;SDS011;10178;48.034;9.800;2022-11-20T02:11:12;2.95;;;2.65;;
20034;SDS011;10178;48.034;9.800;2022-11-20T02:13:38;3.78;;;2.70;;
20034;SDS011;10178;48.034;9.800;2022-11-20T02:16:11;4.00;;;2.70;;
20034;SDS011;10178;48.034;9.800;2022-11-20T02:19:00;3.70;;;2.80;;
20034;SDS011;10178;48.034;9.800;2022-11-20T02:29:12;2.63;;;2.42;;
20034;SDS011;10178;48.034;9.800;2022-11-20T02:31:41;3.22;;;2.40;;
20034;SDS011;10178;48.034;9.800;2022-11-20T02:34:08;3.28;;;2.50;;
20034;SDS011;10178;48.034;9.800;2022-11-20T02:36:34;4.70;;;2.95;;
20034;SDS011;10178;48.034;9.800;2022-11-20T02:39:03;3.35;;;2.55;;
20034;SDS011;10178;48.034;9.800;2022-11-20T02:41:36;3.83;;;2.75;;
20034;SDS011;10178;48.034;9.800;2022-11-20T02:44:02;3.13;;;2.70;;
20034;SDS011;10178;48.034;9.800;2022-11-20T02:46:29;5.00;;;2.45;;
20034;SDS011;10178;48.034;9.800;2022-11-20T02:48:55;3.33;;;2.57;;
20034;SDS011;10178;48.034;9.800;2022-11-20T02:51:21;2.90;;;2.28;;
20034;SDS011;10178;48.034;9.800;2022-11-20T02:53:47;3.45;;;2.70;;
20034;SDS011;10178;48.034;9.800;2022-11-20T02:56:13;2.97;;;2.38;;
20034;SDS011;10178;48.034;9.800;2022-11-20T02:58:38;2.60;;;2.40;;
20034;SDS011;10178;48.034;9.800;2022-11-20T03:01:04;2.38;;;2.17;;
20034;SDS011;10178;48.034;9.800;2022-11-20T03:03:30;3.08;;;2.78;;
20034;SDS011;10178;48.034;9.800;2022-11-20T03:05:55;3.20;;;2.65;;
20034;SDS011;10178;48.034;9.800;2022-11-20T03:08:24;5.65;;;2.83;;
20034;SDS011;10178;48.034;9.800;2022-11-20T03:10:49;3.00;;;2.70;;
20034;SDS011;10178;48.034;9.800;2022-11-20T03:13:15;2.92;;;2.50;;
20034;SDS011;10178;48.034;9.800;2022-11-20T03:15:41;3.95;;;3.50;;
20034;SDS011;10178;48.034;9.800;2022-11-20T03:18:06;3.53;;;2.55;;
20034;SDS011;10178;48.034;9.800;2022-11-20T03:20:32;5.18;;;3.28;;
20034;SDS011;10178;48.034;9.800;2022-11-20T03:22:58;3.58;;;2.97;;
20034;SDS011;10178;48.034;9.800;2022-11-20T03:25:24;3.45;;;3.03;;
20034;SDS011;10178;48.034;9.800;2022-11-20T03:27:50;6.03;;;3.60;;
20034;SDS011;10178;48.034;9.800;2022-11-20T03:30:16;4.20;;;3.80;;
20034;SDS011;10178;48.034;9.800;2022-11-20T03:32:42;3.78;;;3.28;;
20034;SDS011;10178;48.034;9.800;2022-11-20T03:35:07;6.60;;;3.90;;
20034;SDS011;10178;48.034;9.800;2022-11-20T03:37:34;3.90;;;3.50;;
20034;SDS011;10178;48.034;9.800;2022-11-20T03:39:59;3.53;;;3.17;;
20034;SDS011;10178;48.034;9.800;2022-11-20T03:42:25;5.30;;;3.55;;
20034;SDS011;10178;48.034;9.800;2022-11-20T03:45:09;3.97;;;3.50;;
20034;SDS011;10178;48.034;9.800;2022-11-20T03:47:34;4.90;;;3.43;;
20034;SDS011;10178;48.034;9.800;2022-11-20T03:50:00;4.03;;;3.40;;
20034;SDS011;10178;48.034;9.800;2022-11-20T03:52:26;4.85;;;3.70;;
20034;SDS011;10178;48.034;9.800;2022-11-20T03:54:52;4.47;;;4.07;;
20034;SDS011;10178;48.034;9.800;2022-11-20T03:57:17;6.75;;;4.45;;
20034;SDS011;10178;48.034;9.800;2022-11-20T03:59:43;7.03;;;3.55;;
20034;SDS011;10178;48.034;9.800;2022-11-20T04:02:08;4.90;;;4.13;;
20034;SDS011;10178;48.034;9.800;2022-11-20T04:04:34;5.30;;;4.15;;
20034;SDS011;10178;48.034;9.800;2022-11-20T04:06:59;5.40;;;4.30;;
20034;SDS011;10178;48.034;9.800;2022-11-20T04:09:25;3.63;;;2.95;;
20034;SDS011;10178;48.034;9.800;2022-11-20T04:11:51;6.85;;;4.55;;
20034;SDS011;10178;48.034;9.800;2022-11-20T04:14:16;4.18;;;3.50;;
20034;SDS011;10178;48.034;9.800;2022-11-20T04:16:42;3.90;;;3.22;;
20034;SDS011;10178;48.034;9.800;2022-11-20T04:19:15;3.43;;;3.10;;
20034;SDS011;10178;48.034;9.800;2022-11-20T04:21:41;4.20;;;2.95;;
20034;SDS011;10178;48.034;9.800;2022-11-20T04:24:08;5.68;;;3.72;;
20034;SDS011;10178;48.034;9.800;2022-11-20T04:26:35;3.78;;;3.42;;
20034;SDS011;10178;48.034;9.800;2022-11-20T04:29:01;4.82;;;3.28;;
20034;SDS011;10178;48.034;9.800;2022-11-20T04:31:29;5.90;;;4.20;;
20034;SDS011;10178;48.034;9.800;2022-11-20T04:34:00;8.77;;;4.70;;
20034;SDS011;10178;48.034;9.800;2022-11-20T04:36:30;6.13;;;5.10;;
20034;SDS011;10178;48.034;9.800;2022-11-20T04:38:57;6.77;;;5.23;;
20034;SDS011;10178;48.034;9.800;2022-11-20T04:41:24;5.67;;;4.57;;
20034;SDS011;10178;48.034;9.800;2022-11-20T04:43:53;5.68;;;4.00;;
20034;SDS011;10178;48.034;9.800;2022-11-20T04:46:24;4.30;;;3.80;;
20034;SDS011;10178;48.034;9.800;2022-11-20T04:48:50;3.90;;;3.50;;
20034;SDS011;10178;48.034;9.800;2022-11-20T04:51:16;4.87;;;3.50;;
20034;SDS011;10178;48.034;9.800;2022-11-20T04:53:42;4.32;;;3.53;;
20034;SDS011;10178;48.034;9.800;2022-11-20T04:56:09;3.97;;;3.27;;
20034;SDS011;10178;48.034;9.800;2022-11-20T04:58:36;4.20;;;3.47;;
20034;SDS011;10178;48.034;9.800;2022-11-20T05:03:32;4.07;;;3.40;;
20034;SDS011;10178;48.034;9.800;2022-11-20T05:06:02;5.22;;;3.17;;
20034;SDS011;10178;48.034;9.800;2022-11-20T05:08:29;4.00;;;3.60;;
20034;SDS011;10178;48.034;9.800;2022-11-20T05:11:03;4.40;;;2.90;;
20034;SDS011;10178;48.034;9.800;2022-11-20T05:13:30;3.70;;;3.30;;
20034;SDS011;10178;48.034;9.800;2022-11-20T05:16:00;3.47;;;3.03;;
20034;SDS011;10178;48.034;9.800;2022-11-20T05:18:30;3.58;;;3.25;;
20034;SDS011;10178;48.034;9.800;2022-11-20T05:20:58;3.25;;;2.95;;
20034;SDS011;10178;48.034;9.800;2022-11-20T05:23:25;3.42;;;3.05;;
20034;SDS011;10178;48.034;9.800;2022-11-20T05:25:54;3.50;;;3.05;;
20034;SDS011;10178;48.034;9.800;2022-11-20T05:28:20;4.03;;;3.20;;
20034;SDS011;10178;48.034;9.800;2022-11-20T05:30:47;3.70;;;3.30;;
20034;SDS011;10178;48.034;9.800;2022-11-20T05:33:13;3.45;;;2.90;;
20034;SDS011;10178;48.034;9.800;2022-11-20T05:35:38;3.92;;;3.20;;
20034;SDS011;10178;48.034;9.800;2022-11-20T05:38:04;3.67;;;3.10;;
20034;SDS011;10178;48.034;9.800;2022-11-20T05:40:30;4.90;;;2.83;;
20034;SDS011;10178;48.034;9.800;2022-11-20T05:42:55;3.35;;;3.05;;
20034;SDS011;10178;48.034;9.800;2022-11-20T05:45:21;4.47;;;3.90;;
20034;SDS011;10178;48.034;9.800;2022-11-20T05:47:46;4.03;;;3.30;;
20034;SDS011;10178;48.034;9.800;2022-11-20T05:50:12;2.90;;;2.70;;
20034;SDS011;10178;48.034;9.800;2022-11-20T05:52:39;4.45;;;3.72;;
20034;SDS011;10178;48.034;9.800;2022-11-20T05:55:05;3.55;;;3.25;;
20034;SDS011;10178;48.034;9.800;2022-11-20T05:57:31;4.05;;;3.50;;
20034;SDS011;10178;48.034;9.800;2022-11-20T05:59:57;5.47;;;4.00;;
20034;SDS011;10178;48.034;9.800;2022-11-20T06:02:22;4.88;;;3.85;;
20034;SDS011;10178;48.034;9.800;2022-11-20T06:04:48;5.23;;;3.73;;
20034;SDS011;10178;48.034;9.800;2022-11-20T06:07:14;6.67;;;4.70;;
20034;SDS011;10178;48.034;9.800;2022-11-20T06:09:39;5.80;;;4.30;;
20034;SDS011;10178;48.034;9.800;2022-11-20T06:12:05;20.57;;;15.00;;
20034;SDS011;10178;48.034;9.800;2022-11-20T06:14:32;8.47;;;5.50;;
20034;SDS011;10178;48.034;9.800;2022-11-20T06:16:58;6.18;;;4.60;;
20034;SDS011;10178;48.034;9.800;2022-11-20T06:19:23;4.97;;;4.23;;
20034;SDS011;10178;48.034;9.800;2022-11-20T06:21:49;5.80;;;4.40;;
20034;SDS011;10178;48.034;9.800;2022-11-20T06:24:15;7.50;;;4.55;;
20034;SDS011;10178;48.034;9.800;2022-11-20T06:26:41;6.23;;;4.60;;
20034;SDS011;10178;48.034;9.800;2022-11-20T06:29:07;12.07;;;6.05;;
20034;SDS011;10178;48.034;9.800;2022-11-20T06:31:33;7.13;;;4.73;;
20034;SDS011;10178;48.034;9.800;2022-11-20T06:34:02;5.03;;;4.50;;
20034;SDS011;10178;48.034;9.800;2022-11-20T06:36:31;5.57;;;4.30;;
20034;SDS011;10178;48.034;9.800;2022-11-20T06:38:57;8.07;;;4.90;;
20034;SDS011;10178;48.034;9.800;2022-11-20T06:41:24;4.25;;;3.85;;
20034;SDS011;10178;48.034;9.800;2022-11-20T06:43:50;6.90;;;4.50;;
20034;SDS011;10178;48.034;9.800;2022-11-20T06:46:17;5.30;;;3.97;;
20034;SDS011;10178;48.034;9.800;2022-11-20T06:48:43;4.73;;;3.50;;
20034;SDS011;10178;48.034;9.800;2022-11-20T06:51:09;5.82;;;4.40;;
20034;SDS011;10178;48.034;9.800;2022-11-20T06:53:35;4.50;;;3.80;;
20034;SDS011;10178;48.034;9.800;2022-11-20T06:56:02;4.78;;;4.10;;
20034;SDS011;10178;48.034;9.800;2022-11-20T06:58:28;6.38;;;4.20;;
20034;SDS011;10178;48.034;9.800;2022-11-20T07:01:28;5.30;;;4.13;;
20034;SDS011;10178;48.034;9.800;2022-11-20T07:03:48;4.33;;;3.43;;
20034;SDS011;10178;48.034;9.800;2022-11-20T07:06:15;4.38;;;3.72;;
20034;SDS011;10178;48.034;9.800;2022-11-20T07:08:40;6.47;;;4.77;;
20034;SDS011;10178;48.034;9.800;2022-11-20T07:11:06;7.35;;;4.50;;
20034;SDS011;10178;48.034;9.800;2022-11-20T07:13:33;4.07;;;3.67;;
20034;SDS011;10178;48.034;9.800;2022-11-20T07:15:59;5.70;;;4.17;;
20034;SDS011;10178;48.034;9.800;2022-11-20T07:18:26;8.52;;;4.70;;
20034;SDS011;10178;48.034;9.800;2022-11-20T07:20:52;5.27;;;3.73;;
20034;SDS011;10178;48.034;9.800;2022-11-20T07:23:17;6.70;;;4.37;;
20034;SDS011;10178;48.034;9.800;2022-11-20T07:25:43;10.73;;;5.82;;
20034;SDS011;10178;48.034;9.800;2022-11-20T07:28:09;11.80;;;7.03;;
20034;SDS011;10178;48.034;9.800;2022-11-20T07:30:35;5.50;;;4.22;;
20034;SDS011;10178;48.034;9.800;2022-11-20T07:33:01;5.07;;;3.70;;
20034;SDS011;10178;48.034;9.800;2022-11-20T07:35:27;7.18;;;4.18;;
20034;SDS011;10178;48.034;9.800;2022-11-20T07:37:52;5.35;;;4.47;;
20034;SDS011;10178;48.034;9.800;2022-11-20T07:40:18;6.63;;;4.30;;
20034;SDS011;10178;48.034;9.800;2022-11-20T07:42:48;5.80;;;4.50;;
20034;SDS011;10178;48.034;9.800;2022-11-20T07:45:15;6.83;;;4.47;;
20034;SDS011;10178;48.034;9.800;2022-11-20T07:47:41;8.00;;;6.30;;
20034;SDS011;10178;48.034;9.800;2022-11-20T07:50:06;8.82;;;6.38;;
20034;SDS011;10178;48.034;9.800;2022-11-20T07:52:32;10.37;;;7.60;;
20034;SDS011;10178;48.034;9.800;2022-11-20T07:54:58;7.40;;;5.20;;
20034;SDS011;10178;48.034;9.800;2022-11-20T07:57:23;9.93;;;5.05;;
20034;SDS011;10178;48.034;9.800;2022-11-20T07:59:49;6.17;;;4.27;;
20034;SDS011;10178;48.034;9.800;2022-11-20T08:02:14;6.85;;;4.30;;
20034;SDS011;10178;48.034;9.800;2022-11-20T08:04:43;5.65;;;4.40;;
20034;SDS011;10178;48.034;9.800;2022-11-20T08:07:09;5.53;;;4.97;;
20034;SDS011;10178;48.034;9.800;2022-11-20T08:09:34;6.30;;;4.10;;
20034;SDS011;10178;48.034;9.800;2022-11-20T08:12:00;4.32;;;3.80;;
20034;SDS011;10178;48.034;9.800;2022-11-20T08:14:47;5.70;;;3.63;;
20034;SDS011;10178;48.034;9.800;2022-11-20T08:17:13;4.15;;;3.63;;
20034;SDS011;10178;48.034;9.800;2022-11-20T08:19:38;5.90;;;4.20;;
20034;SDS011;10178;48.034;9.800;2022-11-20T08:22:04;5.57;;;3.90;;
20034;SDS011;10178;48.034;9.800;2022-11-20T08:24:29;4.80;;;3.92;;
20034;SDS011;10178;48.034;9.800;2022-11-20T08:26:57;4.28;;;3.85;;
20034;SDS011;10178;48.034;9.800;2022-11-20T08:29:26;5.03;;;3.85;;
20034;SDS011;10178;48.034;9.800;2022-11-20T08:31:52;4.03;;;3.58;;
20034;SDS011;10178;48.034;9.800;2022-11-20T08:34:18;6.55;;;4.10;;
20034;SDS011;10178;48.034;9.800;2022-11-20T08:36:43;4.97;;;3.80;;
20034;SDS011;10178;48.034;9.800;2022-11-20T08:39:12;5.43;;;3.75;;
20034;SDS011;10178;48.034;9.800;2022-11-20T08:41:38;3.72;;;3.03;;
20034;SDS011;10178;48.034;9.800;2022-11-20T08:44:05;4.47;;;3.43;;
20034;SDS011;10178;48.034;9.800;2022-11-20T08:46:33;4.35;;;3.53;;
20034;SDS011;10178;48.034;9.800;2022-11-20T08:48:59;5.87;;;3.03;;
20034;SDS011;10178;48.034;9.800;2022-11-20T08:51:24;6.47;;;3.92;;
20034;SDS011;10178;48.034;9.800;2022-11-20T08:53:50;3.40;;;3.10;;
20034;SDS011;10178;48.034;9.800;2022-11-20T08:56:16;4.67;;;3.40;;
20034;SDS011;10178;48.034;9.800;2022-11-20T08:58:42;3.85;;;3.38;;
20034;SDS011;10178;48.034;9.800;2022-11-20T09:01:08;4.30;;;2.88;;
20034;SDS011;10178;48.034;9.800;2022-11-20T09:03:33;3.40;;;3.10;;
20034;SDS011;10178;48.034;9.800;2022-11-20T09:05:59;3.15;;;2.85;;
20034;SDS011;10178;48.034;9.800;2022-11-20T09:08:26;3.92;;;3.17;;
20034;SDS011;10178;48.034;9.800;2022-11-20T09:10:53;3.72;;;3.08;;
20034;SDS011;10178;48.034;9.800;2022-11-20T09:13:20;3.00;;;2.67;;
20034;SDS011;10178;48.034;9.800;2022-11-20T09:15:47;2.80;;;2.60;;
20034;SDS011;10178;48.034;9.800;2022-11-20T09:18:17;2.75;;;2.53;;
20034;SDS011;10178;48.034;9.800;2022-11-20T09:20:43;2.83;;;2.50;;
20034;SDS011;10178;48.034;9.800;2022-11-20T09:23:09;2.40;;;2.20;;
20034;SDS011;10178;48.034;9.800;2022-11-20T09:25:34;4.15;;;2.22;;
20034;SDS011;10178;48.034;9.800;2022-11-20T09:28:00;2.47;;;2.28;;
20034;SDS011;10178;48.034;9.800;2022-11-20T09:30:26;3.00;;;2.00;;
20034;SDS011;10178;48.034;9.800;2022-11-20T09:32:52;1.80;;;1.70;;
20034;SDS011;10178;48.034;9.800;2022-11-20T09:35:17;2.47;;;2.28;;
20034;SDS011;10178;48.034;9.800;2022-11-20T09:37:43;3.75;;;1.80;;
20034;SDS011;10178;48.034;9.800;2022-11-20T09:40:28;1.80;;;1.70;;
20034;SDS011;10178;48.034;9.800;2022-11-20T09:45:57;2.93;;;1.73;;
20034;SDS011;10178;48.034;9.800;2022-11-20T09:56:36;3.65;;;1.52;;
20034;SDS011;10178;48.034;9.800;2022-11-20T09:59:04;1.73;;;1.40;;
20034;SDS011;10178;48.034;9.800;2022-11-20T10:01:34;1.30;;;1.20;;
20034;SDS011;10178;48.034;9.800;2022-11-20T10:04:04;2.25;;;1.88;;
20034;SDS011;10178;48.034;9.800;2022-11-20T10:07:21;1.52;;;1.10;;
20034;SDS011;10178;48.034;9.800;2022-11-20T10:09:40;1.53;;;1.43;;
20034;SDS011;10178;48.034;9.800;2022-11-20T10:12:31;1.20;;;1.10;;
20034;SDS011;10178;48.034;9.800;2022-11-20T10:20:29;1.33;;;1.23;;
20034;SDS011;10178;48.034;9.800;2022-11-20T10:29:16;1.50;;;1.40;;
20034;SDS011;10178;48.034;9.800;2022-11-20T10:31:45;1.63;;;1.53;;
20034;SDS011;10178;48.034;9.800;2022-11-20T10:34:25;1.63;;;1.40;;
20034;SDS011;10178;48.034;9.800;2022-11-20T10:37:09;9.80;;;5.20;;
20034;SDS011;10178;48.034;9.800;2022-11-20T10:42:28;5.47;;;3.92;;
20034;SDS011;10178;48.034;9.800;2022-11-20T10:47:53;4.65;;;2.25;;
20034;SDS011;10178;48.034;9.800;2022-11-20T10:50:43;4.27;;;2.50;;
20034;SDS011;10178;48.034;9.800;2022-11-20T11:01:57;3.88;;;1.73;;
20034;SDS011;10178;48.034;9.800;2022-11-20T11:04:30;3.92;;;2.30;;
20034;SDS011;10178;48.034;9.800;2022-11-20T11:09:43;4.18;;;2.28;;
20034;SDS011;10178;48.034;9.800;2022-11-20T11:12:12;2.63;;;2.03;;
20034;SDS011;10178;48.034;9.800;2022-11-20T11:14:45;2.17;;;1.98;;
20034;SDS011;10178;48.034;9.800;2022-11-20T11:17:31;5.53;;;2.90;;
20034;SDS011;10178;48.034;9.800;2022-11-20T11:22:42;5.88;;;3.28;;
20034;SDS011;10178;48.034;9.800;2022-11-20T11:25:22;3.50;;;1.98;;
20034;SDS011;10178;48.034;9.800;2022-11-20T11:27:51;5.15;;;2.75;;
20034;SDS011;10178;48.034;9.800;2022-11-20T11:30:20;4.00;;;2.80;;
20034;SDS011;10178;48.034;9.800;2022-11-20T11:32:46;5.13;;;2.27;;
20034;SDS011;10178;48.034;9.800;2022-11-20T11:35:19;2.27;;;1.80;;
20034;SDS011;10178;48.034;9.800;2022-11-20T11:37:51;2.45;;;2.08;;
20034;SDS011;10178;48.034;9.800;2022-11-20T11:40:19;2.63;;;2.00;;
20034;SDS011;10178;48.034;9.800;2022-11-20T11:42:49;2.55;;;1.80;;
20034;SDS011;10178;48.034;9.800;2022-11-20T11:45:24;3.67;;;2.15;;
20034;SDS011;10178;48.034;9.800;2022-11-20T11:47:50;3.00;;;2.10;;
20034;SDS011;10178;48.034;9.800;2022-11-20T11:55:42;5.13;;;2.95;;
20034;SDS011;10178;48.034;9.800;2022-11-20T12:03:59;3.13;;;1.45;;
20034;SDS011;10178;48.034;9.800;2022-11-20T12:06:47;2.28;;;1.75;;
20034;SDS011;10178;48.034;9.800;2022-11-20T12:09:18;1.60;;;1.50;;
20034;SDS011;10178;48.034;9.800;2022-11-20T12:11:57;2.70;;;1.80;;
20034;SDS011;10178;48.034;9.800;2022-11-20T12:14:33;2.20;;;1.55;;
20034;SDS011;10178;48.034;9.800;2022-11-20T12:17:02;2.43;;;1.57;;
20034;SDS011;10178;48.034;9.800;2022-11-20T12:19:29;2.08;;;1.52;;
20034;SDS011;10178;48.034;9.800;2022-11-20T12:49:03;1.30;;;1.20;;
20034;SDS011;10178;48.034;9.800;2022-11-20T12:52:06;1.95;;;1.30;;
20034;SDS011;10178;48.034;9.800;2022-11-20T12:59:56;1.25;;;1.15;;
20034;SDS011;10178;48.034;9.800;2022-11-20T13:08:43;2.22;;;1.38;;
20034;SDS011;10178;48.034;9.800;2022-11-20T13:19:24;1.27;;;1.17;;
20034;SDS011;10178;48.034;9.800;2022-11-20T13:21:51;2.08;;;1.27;;
20034;SDS011;10178;48.034;9.800;2022-11-20T13:24:21;3.53;;;1.20;;
20034;SDS011;10178;48.034;9.800;2022-11-20T13:29:33;1.70;;;1.10;;
20034;SDS011;10178;48.034;9.800;2022-11-20T13:32:15;2.30;;;1.30;;
20034;SDS011;10178;48.034;9.800;2022-11-20T13:34:59;3.42;;;1.30;;
20034;SDS011;10178;48.034;9.800;2022-11-20T13:37:33;1.38;;;1.27;;
20034;SDS011;10178;48.034;9.800;2022-11-20T13:45:59;1.90;;;1.05;;
20034;SDS011;10178;48.034;9.800;2022-11-20T13:48:26;1.45;;;1.27;;
20034;SDS011;10178;48.034;9.800;2022-11-20T13:53:34;1.15;;;1.00;;
20034;SDS011;10178;48.034;9.800;2022-11-20T13:56:23;1.95;;;1.20;;
20034;SDS011;10178;48.034;9.800;2022-11-20T14:01:37;1.77;;;1.27;;
20034;SDS011;10178;48.034;9.800;2022-11-20T14:04:09;1.65;;;1.10;;
20034;SDS011;10178;48.034;9.800;2022-11-20T14:06:43;1.60;;;1.00;;
20034;SDS011;10178;48.034;9.800;2022-11-20T14:09:12;1.00;;;0.90;;
20034;SDS011;10178;48.034;9.800;2022-11-20T14:11:49;4.47;;;1.00;;
20034;SDS011;10178;48.034;9.800;2022-11-20T14:14:16;0.98;;;0.90;;
20034;SDS011;10178;48.034;9.800;2022-11-20T14:16:43;1.38;;;1.10;;
20034;SDS011;10178;48.034;9.800;2022-11-20T14:21:44;1.52;;;1.02;;
20034;SDS011;10178;48.034;9.800;2022-11-20T14:24:17;2.70;;;0.75;;
20034;SDS011;10178;48.034;9.800;2022-11-20T14:26:45;2.38;;;0.90;;
20034;SDS011;10178;48.034;9.800;2022-11-20T14:29:15;1.80;;;1.00;;
20034;SDS011;10178;48.034;9.800;2022-11-20T14:31:43;1.33;;;0.88;;
20034;SDS011;10178;48.034;9.800;2022-11-20T14:34:12;0.98;;;0.95;;
20034;SDS011;10178;48.034;9.800;2022-11-20T14:36:45;0.80;;;0.80;;
20034;SDS011;10178;48.034;9.800;2022-11-20T14:39:11;1.35;;;0.88;;
20034;SDS011;10178;48.034;9.800;2022-11-20T14:41:50;1.50;;;1.02;;
20034;SDS011;10178;48.034;9.800;2022-11-20T14:44:16;0.65;;;0.65;;
20034;SDS011;10178;48.034;9.800;2022-11-20T14:46:42;2.50;;;0.90;;
20034;SDS011;10178;48.034;9.800;2022-11-20T14:49:08;1.10;;;1.00;;
20034;SDS011;10178;48.034;9.800;2022-11-20T14:51:39;1.25;;;0.88;;
20034;SDS011;10178;48.034;9.800;2022-11-20T14:54:16;1.55;;;1.00;;
20034;SDS011;10178;48.034;9.800;2022-11-20T14:56:56;0.80;;;0.80;;
20034;SDS011;10178;48.034;9.800;2022-11-20T14:59:24;0.95;;;0.90;;
20034;SDS011;10178;48.034;9.800;2022-11-20T15:02:08;4.32;;;0.80;;
20034;SDS011;10178;48.034;9.800;2022-11-20T15:07:28;4.18;;;1.02;;
20034;SDS011;10178;48.034;9.800;2022-11-20T15:09:59;1.60;;;0.93;;
20034;SDS011;10178;48.034;9.800;2022-11-20T15:12:49;0.85;;;0.82;;
20034;SDS011;10178;48.034;9.800;2022-11-20T15:15:35;1.55;;;1.00;;
20034;SDS011;10178;48.034;9.800;2022-11-20T15:18:10;1.42;;;1.15;;
20034;SDS011;10178;48.034;9.800;2022-11-20T15:20:40;6.07;;;1.48;;
20034;SDS011;10178;48.034;9.800;2022-11-20T15:23:14;3.25;;;1.00;;
20034;SDS011;10178;48.034;9.800;2022-11-20T15:25:45;1.92;;;1.63;;
20034;SDS011;10178;48.034;9.800;2022-11-20T15:28:23;2.35;;;1.17;;
20034;SDS011;10178;48.034;9.800;2022-11-20T15:31:23;4.47;;;1.67;;
20034;SDS011;10178;48.034;9.800;2022-11-20T15:33:49;3.72;;;1.27;;
20034;SDS011;10178;48.034;9.800;2022-11-20T15:36:15;3.30;;;1.30;;
20034;SDS011;10178;48.034;9.800;2022-11-20T15:38:41;2.42;;;1.40;;
20034;SDS011;10178;48.034;9.800;2022-11-20T15:41:07;1.83;;;1.30;;
20034;SDS011;10178;48.034;9.800;2022-11-20T15:43:33;3.13;;;2.00;;
20034;SDS011;10178;48.034;9.800;2022-11-20T15:45:59;5.78;;;2.72;;
20034;SDS011;10178;48.034;9.800;2022-11-20T15:48:37;6.80;;;3.55;;
20034;SDS011;10178;48.034;9.800;2022-11-20T15:53:37;14.30;;;4.00;;
20034;SDS011;10178;48.034;9.800;2022-11-20T15:56:04;7.18;;;2.95;;
20034;SDS011;10178;48.034;9.800;2022-11-20T15:58:30;2.83;;;1.40;;
20034;SDS011;10178;48.034;9.800;2022-11-20T16:00:55;3.60;;;1.30;;
20034;SDS011;10178;48.034;9.800;2022-11-20T16:03:21;2.07;;;1.50;;
20034;SDS011;10178;48.034;9.800;2022-11-20T16:05:47;6.07;;;1.92;;
20034;SDS011;10178;48.034;9.800;2022-11-20T16:08:13;3.33;;;1.70;;
20034;SDS011;10178;48.034;9.800;2022-11-20T16:10:39;4.57;;;2.27;;
20034;SDS011;10178;48.034;9.800;2022-11-20T16:13:11;4.07;;;2.33;;
20034;SDS011;10178;48.034;9.800;2022-11-20T16:16:00;7.57;;;5.35;;
20034;SDS011;10178;48.034;9.800;2022-11-20T16:18:29;5.83;;;2.37;;
20034;SDS011;10178;48.034;9.800;2022-11-20T16:20:55;4.05;;;3.17;;
20034;SDS011;10178;48.034;9.800;2022-11-20T16:23:21;4.87;;;4.07;;
20034;SDS011;10178;48.034;9.800;2022-11-20T16:25:47;3.40;;;2.67;;
20034;SDS011;10178;48.034;9.800;2022-11-20T16:28:13;3.50;;;2.60;;
20034;SDS011;10178;48.034;9.800;2022-11-20T16:30:39;5.57;;;3.20;;
20034;SDS011;10178;48.034;9.800;2022-11-20T16:33:09;2.88;;;2.38;;
20034;SDS011;10178;48.034;9.800;2022-11-20T16:35:36;2.45;;;2.17;;
20034;SDS011;10178;48.034;9.800;2022-11-20T16:38:02;2.70;;;1.92;;
20034;SDS011;10178;48.034;9.800;2022-11-20T16:40:28;2.85;;;1.70;;
20034;SDS011;10178;48.034;9.800;2022-11-20T16:42:53;2.50;;;2.13;;
20034;SDS011;10178;48.034;9.800;2022-11-20T16:45:19;3.38;;;1.95;;
20034;SDS011;10178;48.034;9.800;2022-11-20T16:47:45;2.55;;;1.60;;
20034;SDS011;10178;48.034;9.800;2022-11-20T16:50:11;4.82;;;1.90;;
20034;SDS011;10178;48.034;9.800;2022-11-20T16:52:37;2.60;;;1.83;;
20034;SDS011;10178;48.034;9.800;2022-11-20T16:55:02;3.80;;;2.05;;
20034;SDS011;10178;48.034;9.800;2022-11-20T16:57:29;3.75;;;2.17;;
20034;SDS011;10178;48.034;9.800;2022-11-20T16:59:55;5.93;;;2.35;;
20034;SDS011;10178;48.034;9.800;2022-11-20T17:02:21;6.15;;;2.25;;
20034;SDS011;10178;48.034;9.800;2022-11-20T17:04:47;7.03;;;2.60;;
20034;SDS011;10178;48.034;9.800;2022-11-20T17:07:13;3.90;;;2.33;;
20034;SDS011;10178;48.034;9.800;2022-11-20T17:09:38;3.88;;;2.35;;
20034;SDS011;10178;48.034;9.800;2022-11-20T17:12:04;7.63;;;3.33;;
20034;SDS011;10178;48.034;9.800;2022-11-20T17:14:30;8.40;;;2.35;;
20034;SDS011;10178;48.034;9.800;2022-11-20T17:16:56;4.70;;;2.30;;